.
WxDataArchive / Data Records for 2016-03-14
2016-03-13 March 2016 2016-03-15

Data Records for Monday, 14 March 2016

Time	Temp	Chill	HIndex	Humid	Dewpt	 Wind 	HiWind	WindDir	Rain 	Barom
-----	----	-----	------	-----	-----	------	------	-------	-----	-----
00:00	46.8	46.8	46.8	96	45.7	1	3	90	0.00	29.671 
00:05	46.8	46.8	46.8	96	45.7	2	4	90	0.00	29.671 
00:10	46.8	46.8	46.8	96	45.7	1	3	90	0.00	29.671 
00:15	46.8	46.8	46.8	96	45.7	1	4	90	0.02	29.666 
00:20	46.8	46.8	46.8	96	45.7	0	1	90	0.00	29.666 
00:25	46.8	46.8	46.8	96	45.7	0	0	---	0.03	29.666 
00:30	46.8	46.8	46.8	96	45.7	0	1	90	0.00	29.676 
00:35	46.8	46.8	46.8	96	45.7	0	1	90	0.00	29.676 
00:40	46.8	46.8	46.8	96	45.7	0	0	---	0.00	29.676 
00:45	46.8	46.8	46.8	96	45.7	0	0	---	0.00	29.673 
00:50	46.8	46.8	46.8	96	45.7	0	0	---	0.00	29.673 
00:55	46.8	46.8	46.8	96	45.7	0	1	90	0.00	29.673 
01:00	46.8	46.8	46.8	96	45.7	0	0	---	0.00	29.671 
01:05	47.0	47.0	47.0	96	45.9	0	0	---	0.00	29.671 
01:10	47.0	47.0	47.0	96	45.9	0	0	---	0.00	29.671 
01:15	47.0	47.0	47.0	97	46.2	0	0	---	0.00	29.667 
01:20	47.0	47.0	47.0	97	46.2	0	0	---	0.00	29.667 
01:25	47.1	47.1	47.1	97	46.3	0	0	---	0.00	29.667 
01:30	47.1	47.1	47.1	97	46.3	0	1	90	0.00	29.662 
01:35	47.1	47.1	47.1	97	46.3	0	0	---	0.00	29.662 
01:40	47.1	47.1	47.1	97	46.3	0	0	---	0.00	29.662 
01:45	47.1	47.1	47.1	97	46.3	0	1	90	0.00	29.657 
01:50	47.1	47.1	47.1	97	46.3	0	0	---	0.00	29.657 
01:55	47.1	47.1	47.1	97	46.3	0	0	---	0.00	29.657 
02:00	47.3	47.3	47.3	97	46.5	0	0	---	0.00	29.659 
02:05	47.3	47.3	47.3	97	46.5	0	0	---	0.00	29.659 
02:10	47.3	47.3	47.3	97	46.5	0	0	---	0.00	29.659 
02:15	47.4	47.4	47.4	97	46.6	0	0	---	0.00	29.657 
02:20	47.4	47.4	47.4	97	46.6	0	0	---	0.00	29.657 
02:25	47.6	47.6	47.6	97	46.8	0	0	---	0.00	29.657 
02:30	47.6	47.6	47.6	97	46.8	0	0	---	0.00	29.658 
02:35	47.6	47.6	47.6	97	46.8	0	0	---	0.00	29.658 
02:40	47.7	47.7	47.7	97	46.9	0	0	---	0.00	29.658 
02:45	47.7	47.7	47.7	97	46.9	0	0	---	0.00	29.655 
02:50	47.7	47.7	47.7	97	46.9	0	1	90	0.00	29.655 
02:55	47.9	47.9	47.9	97	47.1	0	1	90	0.00	29.655 
03:00	47.9	47.9	47.9	97	47.1	0	0	---	0.00	29.656 
03:05	47.9	47.9	47.9	97	47.1	0	0	---	0.00	29.656 
03:10	47.9	47.9	47.9	97	47.1	0	0	---	0.00	29.656 
03:15	48.0	48.0	48.0	97	47.2	0	0	---	0.00	29.651 
03:20	48.0	48.0	48.0	97	47.2	0	0	---	0.00	29.651 
03:25	48.0	48.0	48.0	97	47.2	0	0	---	0.00	29.651 
03:30	48.2	48.2	48.2	97	47.4	0	0	---	0.00	29.647 
03:35	48.2	48.2	48.2	97	47.4	0	0	---	0.00	29.647 
03:40	48.2	48.2	48.2	97	47.4	0	0	---	0.00	29.647 
03:45	48.2	48.2	48.2	97	47.4	0	0	---	0.00	29.644 
03:50	48.3	48.3	48.3	97	47.5	0	1	90	0.00	29.644 
03:55	48.3	48.3	48.3	97	47.5	0	0	---	0.00	29.644 
04:00	48.5	48.5	48.5	97	47.7	0	0	---	0.00	29.634 
04:05	48.5	48.5	48.5	97	47.7	0	0	---	0.00	29.634 
04:10	48.5	48.5	48.5	97	47.7	0	0	---	0.00	29.634 
04:15	48.5	48.5	48.5	97	47.7	0	0	---	0.00	29.633 
04:20	48.6	48.6	48.6	97	47.8	0	0	---	0.00	29.633 
04:25	48.6	48.6	48.6	97	47.8	0	0	---	0.00	29.633 
04:30	48.8	48.8	48.8	97	48.0	0	0	---	0.00	29.636 
04:35	49.1	49.1	49.1	97	48.3	0	0	---	0.00	29.636 
04:40	49.2	49.2	49.2	97	48.4	0	0	---	0.00	29.636 
04:45	49.6	49.6	49.6	97	48.8	0	0	---	0.00	29.632 
04:50	49.9	49.9	49.9	97	49.1	0	0	---	0.00	29.632 
04:55	50.4	50.4	50.4	97	49.6	0	0	---	0.00	29.632 
05:00	51.0	51.0	51.0	98	50.5	0	0	---	0.00	29.631 
05:05	51.7	51.7	51.7	98	51.2	0	0	---	0.00	29.631 
05:10	52.6	52.6	52.6	98	52.0	0	0	---	0.00	29.631 
05:15	53.3	53.3	53.3	98	52.7	0	0	---	0.00	29.628 
05:20	53.8	53.8	53.8	98	53.2	0	0	---	0.00	29.628 
05:25	54.4	54.4	54.4	98	53.8	0	1	90	0.00	29.628 
05:30	54.8	54.8	54.8	98	54.2	0	0	---	0.00	29.627 
05:35	55.1	55.1	55.1	98	54.5	0	0	---	0.00	29.627 
05:40	55.4	55.4	55.4	98	54.8	0	0	---	0.00	29.627 
05:45	55.6	55.6	55.6	98	55.0	0	1	90	0.00	29.626 
05:50	55.7	55.7	55.7	98	55.1	0	1	90	0.00	29.626 
05:55	55.9	55.9	55.9	98	55.3	0	1	90	0.00	29.626 
06:00	55.9	55.9	55.9	98	55.3	0	1	90	0.00	29.632 
06:05	55.9	55.9	55.9	98	55.3	0	1	90	0.00	29.632 
06:10	56.0	56.0	56.0	98	55.4	0	1	90	0.00	29.632 
06:15	56.0	56.0	56.0	98	55.4	0	1	90	0.00	29.634 
06:20	56.0	56.0	56.0	98	55.4	0	1	90	0.00	29.634 
06:25	56.0	56.0	56.0	98	55.4	0	1	90	0.00	29.634 
06:30	56.0	56.0	56.0	98	55.4	0	0	---	0.00	29.635 
06:35	56.0	56.0	56.0	98	55.4	0	1	90	0.00	29.635 
06:40	56.0	56.0	56.0	98	55.4	0	1	90	0.00	29.635 
06:45	56.0	56.0	56.0	98	55.4	0	1	90	0.00	29.637 
06:50	56.0	56.0	56.0	98	55.4	0	1	90	0.00	29.637 
06:55	56.0	56.0	56.0	98	55.4	0	1	90	0.00	29.637 
07:00	56.0	56.0	56.0	98	55.4	0	0	---	0.00	29.641 
07:05	56.0	56.0	56.0	98	55.4	0	0	---	0.00	29.641 
07:10	55.9	55.9	55.9	98	55.3	0	2	90	0.00	29.641 
07:15	55.9	55.9	55.9	98	55.3	0	2	90	0.00	29.641 
07:20	55.9	55.9	55.9	98	55.3	0	1	90	0.00	29.641 
07:25	55.9	55.9	55.9	98	55.3	0	2	90	0.00	29.641 
07:30	55.9	55.9	55.9	98	55.3	0	1	90	0.00	29.640 
07:35	55.9	55.9	55.9	98	55.3	0	0	---	0.00	29.640 
07:40	55.9	55.9	55.9	98	55.3	0	1	90	0.00	29.640 
07:45	55.7	55.7	55.7	98	55.1	0	0	---	0.00	29.640 
07:50	55.7	55.7	55.7	98	55.1	0	0	---	0.00	29.640 
07:55	55.7	55.7	55.7	98	55.1	0	0	---	0.00	29.640 
08:00	55.7	55.7	55.7	98	55.1	0	0	---	0.00	29.641 
08:05	55.7	55.7	55.7	98	55.1	0	0	---	0.00	29.641 
08:10	55.7	55.7	55.7	98	55.1	0	0	---	0.00	29.641 
08:15	55.7	55.7	55.7	98	55.1	0	0	---	0.00	29.652 
08:20	55.7	55.7	55.7	98	55.1	0	1	90	0.00	29.652 
08:25	55.7	55.7	55.7	98	55.1	0	0	---	0.00	29.652 
08:30	55.7	55.7	55.7	98	55.1	0	0	---	0.00	29.655 
08:35	55.7	55.7	55.7	98	55.1	0	1	90	0.00	29.655 
08:40	55.9	55.9	55.9	98	55.3	0	0	---	0.00	29.655 
08:45	55.9	55.9	55.9	98	55.3	0	1	90	0.00	29.660 
08:50	55.9	55.9	55.9	98	55.3	0	0	---	0.00	29.660 
08:55	55.9	55.9	55.9	98	55.3	0	1	90	0.00	29.660 
09:00	56.0	56.0	56.0	98	55.4	0	1	90	0.00	29.656 
09:05	56.0	56.0	56.0	98	55.4	0	1	90	0.00	29.656 
09:10	56.2	56.2	56.2	98	55.6	0	0	---	0.00	29.656 
09:15	56.2	56.2	56.2	98	55.6	0	1	90	0.00	29.664 
09:20	56.2	56.2	56.2	98	55.6	0	1	90	0.00	29.664 
09:25	56.2	56.2	56.2	98	55.6	0	0	---	0.00	29.664 
09:30	56.3	56.3	56.3	98	55.7	0	0	---	0.00	29.661 
09:35	56.5	56.5	56.5	98	55.9	0	0	---	0.00	29.661 
09:40	56.5	56.5	56.5	98	55.9	0	2	90	0.00	29.661 
09:45	56.5	56.5	56.5	98	55.9	0	1	90	0.00	29.661 
09:50	56.5	56.5	56.5	98	55.9	0	0	---	0.00	29.661 
09:55	56.5	56.5	56.5	98	55.9	0	1	90	0.00	29.661 
10:00	56.6	56.6	56.6	98	56.0	0	1	90	0.00	29.669 
10:05	56.6	56.6	56.6	98	56.0	0	0	---	0.00	29.669 
10:10	56.7	56.7	56.7	98	56.1	0	1	90	0.00	29.669 
10:15	56.7	56.7	56.7	98	56.1	0	2	90	0.00	29.670 
10:20	56.7	56.7	56.7	98	56.1	0	2	90	0.00	29.670 
10:25	56.6	56.6	56.6	98	56.0	0	1	90	0.00	29.670 
10:30	56.7	56.7	56.7	98	56.1	0	0	---	0.00	29.671 
10:35	56.7	56.7	56.7	98	56.1	0	1	90	0.00	29.671 
10:40	56.6	56.6	56.6	98	56.0	0	1	90	0.00	29.671 
10:45	56.6	56.6	56.6	98	56.0	0	1	90	0.00	29.671 
10:50	56.5	56.5	56.5	98	55.9	0	2	90	0.00	29.671 
10:55	56.5	56.5	56.5	98	55.9	0	1	90	0.00	29.671 
11:00	56.6	56.6	56.6	98	56.0	0	1	90	0.00	29.670 
11:05	56.7	56.7	56.7	98	56.1	0	1	90	0.00	29.670 
11:10	57.0	57.0	57.0	98	56.4	0	1	90	0.00	29.670 
11:15	57.3	57.3	57.3	98	56.7	0	1	90	0.00	29.665 
11:20	57.5	57.5	57.5	98	56.9	0	2	90	0.00	29.665 
11:25	57.5	57.5	57.5	98	56.9	0	2	90	0.00	29.665 
11:30	57.6	57.6	57.6	98	57.0	0	1	90	0.00	29.662 
11:35	57.8	57.8	57.8	98	57.2	0	1	90	0.00	29.662 
11:40	57.8	57.8	57.8	98	57.2	0	2	90	0.00	29.662 
11:45	57.6	57.6	57.6	97	56.8	0	1	90	0.00	29.659 
11:50	57.5	57.5	57.5	97	56.7	0	1	90	0.00	29.659 
11:55	57.6	57.6	57.6	97	56.8	0	0	---	0.00	29.659 
12:00	57.6	57.6	57.6	97	56.8	0	3	90	0.00	29.658 
12:05	57.5	57.5	57.5	97	56.7	1	3	90	0.00	29.658 
12:10	57.5	57.5	57.5	97	56.7	0	2	90	0.00	29.658 
12:15	57.6	57.6	57.6	97	56.8	0	1	90	0.00	29.661 
12:20	57.6	57.6	57.6	97	56.8	0	1	90	0.00	29.661 
12:25	57.8	57.8	57.8	97	57.0	0	1	90	0.00	29.661 
12:30	58.0	58.0	58.0	97	57.2	0	1	90	0.00	29.659 
12:35	58.1	58.1	58.1	96	57.0	0	1	90	0.00	29.659 
12:40	58.0	58.0	58.0	96	56.9	0	1	90	0.00	29.659 
12:45	58.1	58.1	58.1	96	57.0	0	0	---	0.00	29.654 
12:50	58.1	58.1	58.1	96	57.0	0	2	90	0.00	29.654 
12:55	58.3	58.3	58.3	96	57.2	0	2	90	0.00	29.654 
13:00	58.4	58.4	58.4	96	57.3	0	1	90	0.00	29.651 
13:05	58.7	58.7	58.7	95	57.3	0	2	90	0.00	29.651 
13:10	59.0	59.0	59.0	95	57.6	0	1	90	0.00	29.651 
13:15	59.3	59.3	59.3	95	57.9	0	1	90	0.00	29.643 
13:20	59.5	59.5	59.5	94	57.8	0	1	90	0.00	29.643 
13:25	59.8	59.8	59.8	93	57.8	0	0	---	0.00	29.643 
13:30	59.8	59.8	59.8	92	57.5	0	1	90	0.00	29.636 
13:35	60.1	60.1	60.1	92	57.8	0	1	90	0.00	29.636 
13:40	60.2	60.2	60.2	91	57.6	0	1	90	0.00	29.636 
13:45	60.4	60.4	60.4	89	57.1	0	0	---	0.00	29.633 
13:50	60.5	60.5	60.5	88	56.9	0	1	90	0.00	29.633 
13:55	60.9	60.9	60.9	88	57.3	0	1	90	0.00	29.633 
14:00	61.0	61.0	61.0	86	56.8	0	1	90	0.00	29.628 
14:05	61.2	61.2	61.2	85	56.6	0	0	---	0.00	29.628 
14:10	61.3	61.3	61.3	84	56.4	0	1	90	0.00	29.628 
14:15	61.3	61.3	61.3	84	56.4	0	1	90	0.00	29.629 
14:20	61.2	61.2	61.2	84	56.3	0	0	---	0.00	29.629 
14:25	61.0	61.0	61.0	83	55.8	0	0	---	0.00	29.629 
14:30	61.2	61.2	61.2	84	56.3	0	0	---	0.00	29.624 
14:35	61.0	61.0	61.0	84	56.1	0	1	90	0.00	29.624 
14:40	61.0	61.0	61.0	84	56.1	0	0	---	0.00	29.624 
14:45	61.0	61.0	61.0	83	55.8	0	0	---	0.00	29.620 
14:50	60.9	60.9	60.9	83	55.7	0	0	---	0.00	29.620 
14:55	60.9	60.9	60.9	84	56.0	0	1	90	0.00	29.620 
15:00	60.7	60.7	60.7	84	55.8	0	0	---	0.00	29.618 
15:05	60.7	60.7	60.7	84	55.8	0	0	---	0.00	29.618 
15:10	60.5	60.5	60.5	84	55.6	0	1	90	0.00	29.618 
15:15	60.5	60.5	60.5	85	56.0	0	0	---	0.00	29.615 
15:20	60.4	60.4	60.4	85	55.9	0	2	90	0.00	29.615 
15:25	60.2	60.2	60.2	85	55.7	0	1	90	0.00	29.615 
15:30	60.2	60.2	60.2	85	55.7	0	0	---	0.00	29.614 
15:35	60.2	60.2	60.2	85	55.7	0	1	90	0.00	29.614 
15:40	60.2	60.2	60.2	85	55.7	0	3	90	0.00	29.614 
15:45	60.1	60.1	60.1	85	55.6	0	2	90	0.00	29.612 
15:50	60.1	60.1	60.1	85	55.6	0	2	90	0.00	29.612 
15:55	59.9	59.9	59.9	85	55.4	0	1	90	0.00	29.612 
16:00	59.9	59.9	59.9	85	55.4	0	2	90	0.00	29.612 
16:05	59.9	59.9	59.9	85	55.4	1	3	90	0.00	29.612 
16:10	59.9	59.9	59.9	85	55.4	0	2	90	0.00	29.612 
16:15	59.9	59.9	59.9	85	55.4	0	2	90	0.00	29.611 
16:20	59.9	59.9	59.9	85	55.4	1	3	90	0.00	29.611 
16:25	59.9	59.9	59.9	85	55.4	0	1	90	0.00	29.611 
16:30	59.9	59.9	59.9	85	55.4	0	1	90	0.00	29.608 
16:35	59.9	59.9	59.9	85	55.4	0	2	90	0.00	29.608 
16:40	59.9	59.9	59.9	85	55.4	0	1	90	0.00	29.608 
16:45	59.9	59.9	59.9	84	55.0	0	1	90	0.00	29.609 
16:50	60.1	60.1	60.1	85	55.6	0	1	90	0.00	29.609 
16:55	60.2	60.2	60.2	84	55.3	0	2	90	0.00	29.609 
17:00	60.2	60.2	60.2	84	55.3	0	3	90	0.00	29.607 
17:05	60.2	60.2	60.2	84	55.3	1	3	90	0.00	29.607 
17:10	60.1	60.1	60.1	84	55.2	1	2	90	0.00	29.607 
17:15	60.1	60.1	60.1	84	55.2	1	2	90	0.00	29.604 
17:20	60.1	60.1	60.1	84	55.2	0	3	90	0.00	29.604 
17:25	60.1	60.1	60.1	84	55.2	0	3	90	0.00	29.604 
17:30	59.9	59.9	59.9	83	54.7	1	2	90	0.00	29.605 
17:35	59.9	59.9	59.9	83	54.7	1	3	90	0.00	29.605 
17:40	59.9	59.9	59.9	83	54.7	1	4	90	0.00	29.605 
17:45	59.8	59.8	59.8	82	54.3	1	3	90	0.00	29.606 
17:50	59.8	59.8	59.8	82	54.3	1	4	90	0.00	29.606 
17:55	59.8	59.8	59.8	82	54.3	0	2	90	0.00	29.606 
18:00	59.8	59.8	59.8	82	54.3	0	3	90	0.00	29.609 
18:05	59.8	59.8	59.8	82	54.3	0	2	90	0.00	29.609 
18:10	59.8	59.8	59.8	82	54.3	0	2	90	0.00	29.609 
18:15	59.8	59.8	59.8	81	54.0	1	3	90	0.00	29.612 
18:20	59.8	59.8	59.8	81	54.0	0	2	90	0.00	29.612 
18:25	59.8	59.8	59.8	81	54.0	0	1	90	0.00	29.612 
18:30	59.8	59.8	59.8	81	54.0	0	3	90	0.00	29.609 
18:35	59.8	59.8	59.8	82	54.3	0	2	90	0.00	29.609 
18:40	59.6	59.6	59.6	81	53.8	1	3	292	0.00	29.609 
18:45	59.5	59.5	59.5	81	53.7	1	4	292	0.00	29.610 
18:50	59.3	59.3	59.3	80	53.1	1	3	292	0.00	29.610 
18:55	59.2	59.2	59.2	80	53.0	1	3	292	0.00	29.610 
19:00	59.2	59.2	59.2	81	53.4	0	2	292	0.00	29.612 
19:05	59.0	59.0	59.0	81	53.2	1	3	292	0.00	29.612 
19:10	58.9	58.9	58.9	81	53.1	1	3	292	0.00	29.612 
19:15	58.9	58.9	58.9	81	53.1	0	2	292	0.00	29.617 
19:20	58.7	58.7	58.7	82	53.2	1	2	292	0.00	29.617 
19:25	58.6	58.6	58.6	82	53.1	1	4	292	0.00	29.617 
19:30	58.4	58.4	58.4	83	53.3	0	2	292	0.00	29.624 
19:35	58.3	58.3	58.3	83	53.2	0	2	292	0.00	29.624 
19:40	58.3	58.3	58.3	83	53.2	0	1	292	0.00	29.624 
19:45	58.1	58.1	58.1	84	53.3	1	3	292	0.00	29.631 
19:50	57.8	57.8	57.8	83	52.7	1	5	292	0.00	29.631 
19:55	57.5	57.5	57.5	83	52.4	2	4	292	0.00	29.631 
20:00	57.3	57.3	57.3	84	52.5	1	4	292	0.00	29.637 
20:05	57.2	57.2	57.2	84	52.4	0	2	292	0.00	29.637 
20:10	57.0	57.0	57.0	84	52.2	0	2	292	0.00	29.637 
20:15	56.7	56.7	56.7	84	51.9	0	2	292	0.00	29.644 
20:20	56.6	56.6	56.6	84	51.8	0	1	292	0.00	29.644 
20:25	56.5	56.5	56.5	85	52.0	0	1	292	0.00	29.644 
20:30	56.3	56.3	56.3	85	51.8	0	0	---	0.00	29.648 
20:35	56.2	56.2	56.2	85	51.7	0	0	---	0.00	29.648 
20:40	56.0	56.0	56.0	86	51.9	0	0	---	0.00	29.648 
20:45	55.7	55.7	55.7	86	51.6	0	0	---	0.00	29.652 
20:50	55.6	55.6	55.6	86	51.5	0	0	---	0.00	29.652 
20:55	55.4	55.4	55.4	87	51.6	0	0	---	0.00	29.652 
21:00	55.3	55.3	55.3	87	51.5	0	0	---	0.00	29.664 
21:05	55.3	55.3	55.3	88	51.8	0	0	---	0.00	29.664 
21:10	55.3	55.3	55.3	88	51.8	0	0	---	0.00	29.664 
21:15	55.3	55.3	55.3	88	51.8	0	0	---	0.00	29.673 
21:20	55.4	55.4	55.4	89	52.2	0	1	292	0.00	29.673 
21:25	55.4	55.4	55.4	89	52.2	0	1	292	0.00	29.673 
21:30	55.6	55.6	55.6	89	52.4	0	3	292	0.00	29.682 
21:35	55.4	55.4	55.4	89	52.2	0	3	292	0.00	29.682 
21:40	55.3	55.3	55.3	88	51.8	1	3	292	0.00	29.682 
21:45	55.1	55.1	55.1	88	51.6	2	3	292	0.00	29.696 
21:50	55.0	55.0	55.0	87	51.2	1	3	292	0.00	29.696 
21:55	54.8	54.8	54.8	87	51.0	1	3	292	0.00	29.696 
22:00	54.7	54.7	54.7	86	50.6	1	5	292	0.00	29.708 
22:05	54.5	54.5	54.5	86	50.4	2	4	292	0.00	29.708 
22:10	54.4	54.4	54.4	86	50.3	1	5	315	0.00	29.708 
22:15	54.1	54.1	54.1	85	49.7	2	5	315	0.00	29.707 
22:20	53.9	53.9	53.9	85	49.5	1	4	315	0.00	29.707 
22:25	53.8	53.8	53.8	85	49.4	1	3	315	0.00	29.707 
22:30	53.6	53.6	53.6	85	49.2	1	5	315	0.00	29.711 
22:35	53.6	53.6	53.6	85	49.2	1	4	315	0.00	29.711 
22:40	53.5	53.5	53.5	85	49.1	2	4	315	0.00	29.711 
22:45	53.3	53.3	53.3	85	48.9	1	4	292	0.00	29.711 
22:50	53.2	53.2	53.2	84	48.5	1	4	292	0.00	29.711 
22:55	53.2	53.2	53.2	84	48.5	2	5	292	0.00	29.711 
23:00	53.1	53.1	53.1	84	48.4	1	3	292	0.00	29.712 
23:05	53.1	53.1	53.1	84	48.4	0	2	292	0.00	29.712 
23:10	52.9	52.9	52.9	84	48.2	1	3	292	0.00	29.712 
23:15	52.9	52.9	52.9	84	48.2	0	2	292	0.00	29.715 
23:20	52.8	52.8	52.8	84	48.1	1	2	292	0.00	29.715 
23:25	52.8	52.8	52.8	84	48.1	1	2	292	0.00	29.715 
23:30	52.6	52.6	52.6	84	47.9	0	2	292	0.00	29.717 
23:35	52.5	52.5	52.5	84	47.8	0	2	292	0.00	29.717 
23:40	52.5	52.5	52.5	84	47.8	0	3	292	0.00	29.717 
23:45	52.3	52.3	52.3	84	47.6	0	1	292	0.00	29.715 
23:50	52.3	52.3	52.3	84	47.6	1	3	292	0.00	29.715 
23:55	52.2	52.2	52.2	84	47.5	2	3	292	0.00	29.715 

CoCoRaHS
IN-AL-39
A2 Web Hosting
Creative Commons License
GoDaddy
search engine by freefind advanced

loaded 2018-11-14 04:15:40 • last modified 2010-11-18 10:43:29
Privacy PolicyDisclaimer
• wx.awcolley.com is powered by PmWiki v.2002016 •
• all content (unless otherwise noted) © 2018 A W Colley